sensor_id;sensor_type;location;lat;lon;timestamp;P1;durP1;ratioP1;P2;durP2;ratioP2
12968;SDS011;6549;53.128;8.182;2023-02-20T00:01:52;4.88;;;2.97;;
12968;SDS011;6549;53.128;8.182;2023-02-20T00:04:54;7.20;;;3.10;;
12968;SDS011;6549;53.128;8.182;2023-02-20T00:07:54;7.70;;;3.28;;
12968;SDS011;6549;53.128;8.182;2023-02-20T00:10:55;7.35;;;3.55;;
12968;SDS011;6549;53.128;8.182;2023-02-20T00:13:55;5.85;;;3.10;;
12968;SDS011;6549;53.128;8.182;2023-02-20T00:16:55;5.63;;;3.10;;
12968;SDS011;6549;53.128;8.182;2023-02-20T00:19:56;6.30;;;3.15;;
12968;SDS011;6549;53.128;8.182;2023-02-20T00:22:56;6.45;;;3.30;;
12968;SDS011;6549;53.128;8.182;2023-02-20T00:25:56;7.88;;;3.45;;
12968;SDS011;6549;53.128;8.182;2023-02-20T00:28:57;8.60;;;4.40;;
12968;SDS011;6549;53.128;8.182;2023-02-20T00:31:57;8.80;;;4.00;;
12968;SDS011;6549;53.128;8.182;2023-02-20T00:34:58;6.53;;;3.60;;
12968;SDS011;6549;53.128;8.182;2023-02-20T00:37:58;6.90;;;4.07;;
12968;SDS011;6549;53.128;8.182;2023-02-20T00:40:58;7.18;;;4.20;;
12968;SDS011;6549;53.128;8.182;2023-02-20T00:43:59;7.50;;;3.72;;
12968;SDS011;6549;53.128;8.182;2023-02-20T00:46:59;6.15;;;3.92;;
12968;SDS011;6549;53.128;8.182;2023-02-20T00:49:59;6.47;;;3.92;;
12968;SDS011;6549;53.128;8.182;2023-02-20T00:53:00;6.60;;;3.70;;
12968;SDS011;6549;53.128;8.182;2023-02-20T00:56:02;6.93;;;4.10;;
12968;SDS011;6549;53.128;8.182;2023-02-20T00:59:02;7.82;;;4.55;;
12968;SDS011;6549;53.128;8.182;2023-02-20T01:02:03;8.20;;;4.32;;
12968;SDS011;6549;53.128;8.182;2023-02-20T01:05:03;6.22;;;3.95;;
12968;SDS011;6549;53.128;8.182;2023-02-20T01:08:04;7.40;;;4.05;;
12968;SDS011;6549;53.128;8.182;2023-02-20T01:11:04;5.85;;;3.67;;
12968;SDS011;6549;53.128;8.182;2023-02-20T01:14:05;8.13;;;4.50;;
12968;SDS011;6549;53.128;8.182;2023-02-20T01:17:05;6.85;;;4.18;;
12968;SDS011;6549;53.128;8.182;2023-02-20T01:20:05;7.50;;;4.40;;
12968;SDS011;6549;53.128;8.182;2023-02-20T01:23:07;7.55;;;4.13;;
12968;SDS011;6549;53.128;8.182;2023-02-20T01:26:08;8.57;;;4.20;;
12968;SDS011;6549;53.128;8.182;2023-02-20T01:29:08;10.65;;;4.63;;
12968;SDS011;6549;53.128;8.182;2023-02-20T01:32:11;7.72;;;4.85;;
12968;SDS011;6549;53.128;8.182;2023-02-20T01:35:13;7.63;;;4.32;;
12968;SDS011;6549;53.128;8.182;2023-02-20T01:38:14;9.10;;;5.05;;
12968;SDS011;6549;53.128;8.182;2023-02-20T01:41:14;7.18;;;4.85;;
12968;SDS011;6549;53.128;8.182;2023-02-20T01:44:22;7.00;;;4.63;;
12968;SDS011;6549;53.128;8.182;2023-02-20T01:47:24;7.18;;;4.78;;
12968;SDS011;6549;53.128;8.182;2023-02-20T01:50:26;9.23;;;4.47;;
12968;SDS011;6549;53.128;8.182;2023-02-20T01:53:36;8.48;;;5.22;;
12968;SDS011;6549;53.128;8.182;2023-02-20T01:56:36;8.75;;;5.07;;
12968;SDS011;6549;53.128;8.182;2023-02-20T01:59:37;8.48;;;5.32;;
12968;SDS011;6549;53.128;8.182;2023-02-20T02:02:39;8.77;;;5.75;;
12968;SDS011;6549;53.128;8.182;2023-02-20T02:05:45;9.55;;;5.82;;
12968;SDS011;6549;53.128;8.182;2023-02-20T02:08:47;9.57;;;5.97;;
12968;SDS011;6549;53.128;8.182;2023-02-20T02:11:48;9.90;;;6.07;;
12968;SDS011;6549;53.128;8.182;2023-02-20T02:14:49;9.40;;;5.65;;
12968;SDS011;6549;53.128;8.182;2023-02-20T02:21:15;9.65;;;5.60;;
12968;SDS011;6549;53.128;8.182;2023-02-20T02:24:34;9.73;;;5.97;;
12968;SDS011;6549;53.128;8.182;2023-02-20T02:27:51;9.85;;;5.72;;
12968;SDS011;6549;53.128;8.182;2023-02-20T02:37:49;11.60;;;6.40;;
12968;SDS011;6549;53.128;8.182;2023-02-20T02:41:17;11.60;;;6.22;;
12968;SDS011;6549;53.128;8.182;2023-02-20T02:51:18;10.23;;;6.70;;
12968;SDS011;6549;53.128;8.182;2023-02-20T02:54:24;12.45;;;7.15;;
12968;SDS011;6549;53.128;8.182;2023-02-20T02:57:26;11.35;;;7.38;;
12968;SDS011;6549;53.128;8.182;2023-02-20T03:03:40;13.02;;;7.75;;
12968;SDS011;6549;53.128;8.182;2023-02-20T03:06:44;13.02;;;8.07;;
12968;SDS011;6549;53.128;8.182;2023-02-20T03:09:47;13.35;;;8.57;;
12968;SDS011;6549;53.128;8.182;2023-02-20T03:13:04;13.15;;;7.80;;
12968;SDS011;6549;53.128;8.182;2023-02-20T03:16:07;15.65;;;8.70;;
12968;SDS011;6549;53.128;8.182;2023-02-20T03:19:10;14.00;;;8.48;;
12968;SDS011;6549;53.128;8.182;2023-02-20T03:22:21;12.40;;;8.23;;
12968;SDS011;6549;53.128;8.182;2023-02-20T03:25:35;13.70;;;8.90;;
12968;SDS011;6549;53.128;8.182;2023-02-20T03:28:41;12.70;;;7.93;;
12968;SDS011;6549;53.128;8.182;2023-02-20T03:32:04;15.23;;;8.32;;
12968;SDS011;6549;53.128;8.182;2023-02-20T03:35:27;15.07;;;8.73;;
12968;SDS011;6549;53.128;8.182;2023-02-20T03:38:52;12.60;;;8.32;;
12968;SDS011;6549;53.128;8.182;2023-02-20T03:42:17;14.00;;;8.25;;
12968;SDS011;6549;53.128;8.182;2023-02-20T03:45:37;13.75;;;8.45;;
12968;SDS011;6549;53.128;8.182;2023-02-20T03:48:41;13.80;;;8.13;;
12968;SDS011;6549;53.128;8.182;2023-02-20T03:51:47;15.88;;;8.70;;
12968;SDS011;6549;53.128;8.182;2023-02-20T03:54:48;14.68;;;8.43;;
12968;SDS011;6549;53.128;8.182;2023-02-20T03:57:50;13.10;;;8.60;;
12968;SDS011;6549;53.128;8.182;2023-02-20T04:00:54;14.73;;;9.00;;
12968;SDS011;6549;53.128;8.182;2023-02-20T04:04:00;13.75;;;8.05;;
12968;SDS011;6549;53.128;8.182;2023-02-20T04:07:03;14.20;;;8.77;;
12968;SDS011;6549;53.128;8.182;2023-02-20T04:10:10;16.55;;;9.00;;
12968;SDS011;6549;53.128;8.182;2023-02-20T04:13:16;15.18;;;9.05;;
12968;SDS011;6549;53.128;8.182;2023-02-20T04:16:17;13.07;;;9.02;;
12968;SDS011;6549;53.128;8.182;2023-02-20T04:19:19;14.30;;;8.65;;
12968;SDS011;6549;53.128;8.182;2023-02-20T04:22:21;16.65;;;8.57;;
12968;SDS011;6549;53.128;8.182;2023-02-20T04:25:30;14.55;;;8.85;;
12968;SDS011;6549;53.128;8.182;2023-02-20T04:28:38;17.57;;;9.23;;
12968;SDS011;6549;53.128;8.182;2023-02-20T04:31:39;15.02;;;9.25;;
12968;SDS011;6549;53.128;8.182;2023-02-20T04:34:39;17.33;;;9.50;;
12968;SDS011;6549;53.128;8.182;2023-02-20T04:37:40;16.45;;;9.80;;
12968;SDS011;6549;53.128;8.182;2023-02-20T04:40:40;19.23;;;9.90;;
12968;SDS011;6549;53.128;8.182;2023-02-20T04:43:40;15.05;;;9.32;;
12968;SDS011;6549;53.128;8.182;2023-02-20T04:46:41;16.17;;;9.23;;
12968;SDS011;6549;53.128;8.182;2023-02-20T04:49:41;15.50;;;9.88;;
12968;SDS011;6549;53.128;8.182;2023-02-20T04:52:42;15.25;;;9.93;;
12968;SDS011;6549;53.128;8.182;2023-02-20T04:55:42;15.02;;;9.60;;
12968;SDS011;6549;53.128;8.182;2023-02-20T04:58:45;16.83;;;10.13;;
12968;SDS011;6549;53.128;8.182;2023-02-20T05:01:46;19.65;;;10.88;;
12968;SDS011;6549;53.128;8.182;2023-02-20T05:04:51;20.70;;;11.35;;
12968;SDS011;6549;53.128;8.182;2023-02-20T05:07:55;21.95;;;11.63;;
12968;SDS011;6549;53.128;8.182;2023-02-20T05:10:56;22.08;;;12.00;;
12968;SDS011;6549;53.128;8.182;2023-02-20T05:13:57;19.85;;;12.48;;
12968;SDS011;6549;53.128;8.182;2023-02-20T05:16:57;20.02;;;12.20;;
12968;SDS011;6549;53.128;8.182;2023-02-20T05:19:57;21.35;;;12.63;;
12968;SDS011;6549;53.128;8.182;2023-02-20T05:22:58;22.08;;;13.07;;
12968;SDS011;6549;53.128;8.182;2023-02-20T05:25:58;20.88;;;13.15;;
12968;SDS011;6549;53.128;8.182;2023-02-20T05:28:58;20.38;;;13.80;;
12968;SDS011;6549;53.128;8.182;2023-02-20T05:31:59;24.00;;;14.88;;
12968;SDS011;6549;53.128;8.182;2023-02-20T05:34:59;24.60;;;15.38;;
12968;SDS011;6549;53.128;8.182;2023-02-20T05:37:59;24.17;;;16.33;;
12968;SDS011;6549;53.128;8.182;2023-02-20T05:41:00;30.45;;;16.60;;
12968;SDS011;6549;53.128;8.182;2023-02-20T05:44:00;25.02;;;17.05;;
12968;SDS011;6549;53.128;8.182;2023-02-20T05:47:00;27.00;;;17.55;;
12968;SDS011;6549;53.128;8.182;2023-02-20T05:50:01;28.05;;;17.65;;
12968;SDS011;6549;53.128;8.182;2023-02-20T05:53:01;25.10;;;17.55;;
12968;SDS011;6549;53.128;8.182;2023-02-20T05:56:02;27.40;;;18.23;;
12968;SDS011;6549;53.128;8.182;2023-02-20T05:59:02;33.10;;;19.48;;
12968;SDS011;6549;53.128;8.182;2023-02-20T06:02:03;27.90;;;19.35;;
12968;SDS011;6549;53.128;8.182;2023-02-20T06:05:03;27.60;;;18.35;;
12968;SDS011;6549;53.128;8.182;2023-02-20T06:08:05;29.35;;;19.38;;
12968;SDS011;6549;53.128;8.182;2023-02-20T06:11:06;27.98;;;18.35;;
12968;SDS011;6549;53.128;8.182;2023-02-20T06:14:08;32.10;;;18.50;;
12968;SDS011;6549;53.128;8.182;2023-02-20T06:17:08;31.75;;;19.17;;
12968;SDS011;6549;53.128;8.182;2023-02-20T06:20:08;30.55;;;19.25;;
12968;SDS011;6549;53.128;8.182;2023-02-20T06:23:09;32.30;;;19.80;;
12968;SDS011;6549;53.128;8.182;2023-02-20T06:26:09;37.00;;;19.50;;
12968;SDS011;6549;53.128;8.182;2023-02-20T06:29:11;32.03;;;19.45;;
12968;SDS011;6549;53.128;8.182;2023-02-20T06:32:13;32.08;;;19.55;;
12968;SDS011;6549;53.128;8.182;2023-02-20T06:35:13;32.75;;;19.00;;
12968;SDS011;6549;53.128;8.182;2023-02-20T06:38:14;33.13;;;19.55;;
12968;SDS011;6549;53.128;8.182;2023-02-20T06:41:14;32.40;;;19.42;;
12968;SDS011;6549;53.128;8.182;2023-02-20T06:44:15;31.08;;;19.00;;
12968;SDS011;6549;53.128;8.182;2023-02-20T06:47:15;33.83;;;20.27;;
12968;SDS011;6549;53.128;8.182;2023-02-20T06:50:15;31.63;;;19.88;;
12968;SDS011;6549;53.128;8.182;2023-02-20T06:53:16;41.40;;;22.55;;
12968;SDS011;6549;53.128;8.182;2023-02-20T06:56:17;35.72;;;19.73;;
12968;SDS011;6549;53.128;8.182;2023-02-20T06:59:20;35.03;;;19.38;;
12968;SDS011;6549;53.128;8.182;2023-02-20T07:02:20;33.75;;;19.65;;
12968;SDS011;6549;53.128;8.182;2023-02-20T07:05:21;32.80;;;19.33;;
12968;SDS011;6549;53.128;8.182;2023-02-20T07:08:21;34.88;;;19.30;;
12968;SDS011;6549;53.128;8.182;2023-02-20T07:11:22;35.88;;;19.98;;
12968;SDS011;6549;53.128;8.182;2023-02-20T07:14:23;34.92;;;19.98;;
12968;SDS011;6549;53.128;8.182;2023-02-20T07:17:23;35.45;;;20.05;;
12968;SDS011;6549;53.128;8.182;2023-02-20T07:20:24;33.28;;;19.33;;
12968;SDS011;6549;53.128;8.182;2023-02-20T07:23:24;33.95;;;20.65;;
12968;SDS011;6549;53.128;8.182;2023-02-20T07:26:25;36.08;;;20.27;;
12968;SDS011;6549;53.128;8.182;2023-02-20T07:29:27;31.40;;;19.75;;
12968;SDS011;6549;53.128;8.182;2023-02-20T07:32:27;37.75;;;19.05;;
12968;SDS011;6549;53.128;8.182;2023-02-20T07:35:27;35.03;;;19.48;;
12968;SDS011;6549;53.128;8.182;2023-02-20T07:38:28;37.70;;;20.67;;
12968;SDS011;6549;53.128;8.182;2023-02-20T07:41:29;38.10;;;19.95;;
12968;SDS011;6549;53.128;8.182;2023-02-20T07:44:36;37.13;;;19.10;;
12968;SDS011;6549;53.128;8.182;2023-02-20T07:47:36;33.85;;;20.48;;
12968;SDS011;6549;53.128;8.182;2023-02-20T07:50:37;40.58;;;20.80;;
12968;SDS011;6549;53.128;8.182;2023-02-20T07:53:37;37.60;;;20.48;;
12968;SDS011;6549;53.128;8.182;2023-02-20T07:56:39;34.13;;;19.55;;
12968;SDS011;6549;53.128;8.182;2023-02-20T07:59:40;43.17;;;20.65;;
12968;SDS011;6549;53.128;8.182;2023-02-20T08:02:40;39.08;;;20.70;;
12968;SDS011;6549;53.128;8.182;2023-02-20T08:05:41;39.10;;;20.77;;
12968;SDS011;6549;53.128;8.182;2023-02-20T08:08:41;36.13;;;19.90;;
12968;SDS011;6549;53.128;8.182;2023-02-20T08:11:41;35.47;;;19.98;;
12968;SDS011;6549;53.128;8.182;2023-02-20T08:14:42;35.03;;;19.35;;
12968;SDS011;6549;53.128;8.182;2023-02-20T08:17:42;34.92;;;19.15;;
12968;SDS011;6549;53.128;8.182;2023-02-20T08:20:42;37.20;;;19.30;;
12968;SDS011;6549;53.128;8.182;2023-02-20T08:23:43;36.72;;;19.30;;
12968;SDS011;6549;53.128;8.182;2023-02-20T08:26:44;38.35;;;20.40;;
12968;SDS011;6549;53.128;8.182;2023-02-20T08:29:45;33.53;;;18.57;;
12968;SDS011;6549;53.128;8.182;2023-02-20T08:32:45;35.53;;;19.23;;
12968;SDS011;6549;53.128;8.182;2023-02-20T08:35:46;36.90;;;18.88;;
12968;SDS011;6549;53.128;8.182;2023-02-20T08:41:49;34.63;;;17.87;;
12968;SDS011;6549;53.128;8.182;2023-02-20T08:44:49;33.50;;;19.02;;
12968;SDS011;6549;53.128;8.182;2023-02-20T08:47:49;35.47;;;17.88;;
12968;SDS011;6549;53.128;8.182;2023-02-20T08:50:50;29.88;;;17.52;;
12968;SDS011;6549;53.128;8.182;2023-02-20T08:53:51;34.28;;;17.63;;
12968;SDS011;6549;53.128;8.182;2023-02-20T08:56:51;27.75;;;16.88;;
12968;SDS011;6549;53.128;8.182;2023-02-20T08:59:51;37.28;;;17.40;;
12968;SDS011;6549;53.128;8.182;2023-02-20T09:02:52;30.50;;;16.15;;
12968;SDS011;6549;53.128;8.182;2023-02-20T09:05:52;28.98;;;15.48;;
12968;SDS011;6549;53.128;8.182;2023-02-20T09:08:55;30.85;;;16.70;;
12968;SDS011;6549;53.128;8.182;2023-02-20T09:11:55;30.17;;;15.18;;
12968;SDS011;6549;53.128;8.182;2023-02-20T09:14:56;27.08;;;14.70;;
12968;SDS011;6549;53.128;8.182;2023-02-20T09:17:59;30.45;;;14.57;;
12968;SDS011;6549;53.128;8.182;2023-02-20T09:20:59;24.33;;;13.43;;
12968;SDS011;6549;53.128;8.182;2023-02-20T09:24:00;22.45;;;13.05;;
12968;SDS011;6549;53.128;8.182;2023-02-20T09:27:00;23.95;;;12.85;;
12968;SDS011;6549;53.128;8.182;2023-02-20T09:30:02;24.00;;;12.80;;
12968;SDS011;6549;53.128;8.182;2023-02-20T09:33:03;22.97;;;12.57;;
12968;SDS011;6549;53.128;8.182;2023-02-20T09:36:04;27.20;;;12.50;;
12968;SDS011;6549;53.128;8.182;2023-02-20T09:39:05;24.23;;;12.77;;
12968;SDS011;6549;53.128;8.182;2023-02-20T09:45:26;22.70;;;12.13;;
12968;SDS011;6549;53.128;8.182;2023-02-20T09:48:44;21.23;;;11.95;;
12968;SDS011;6549;53.128;8.182;2023-02-20T09:51:58;20.02;;;10.98;;
12968;SDS011;6549;53.128;8.182;2023-02-20T09:55:02;20.90;;;11.10;;
12968;SDS011;6549;53.128;8.182;2023-02-20T09:58:08;23.00;;;11.00;;
12968;SDS011;6549;53.128;8.182;2023-02-20T10:01:29;22.95;;;11.15;;
12968;SDS011;6549;53.128;8.182;2023-02-20T10:04:33;24.20;;;11.15;;
12968;SDS011;6549;53.128;8.182;2023-02-20T10:07:38;24.85;;;10.80;;
12968;SDS011;6549;53.128;8.182;2023-02-20T10:17:46;18.15;;;10.07;;
12968;SDS011;6549;53.128;8.182;2023-02-20T10:21:02;20.23;;;10.05;;
12968;SDS011;6549;53.128;8.182;2023-02-20T10:24:12;17.70;;;9.45;;
12968;SDS011;6549;53.128;8.182;2023-02-20T10:30:41;24.45;;;9.65;;
12968;SDS011;6549;53.128;8.182;2023-02-20T10:33:51;16.55;;;9.57;;
12968;SDS011;6549;53.128;8.182;2023-02-20T10:37:01;17.70;;;8.13;;
12968;SDS011;6549;53.128;8.182;2023-02-20T10:40:07;17.83;;;8.68;;
12968;SDS011;6549;53.128;8.182;2023-02-20T10:43:20;15.27;;;8.85;;
12968;SDS011;6549;53.128;8.182;2023-02-20T10:49:41;16.50;;;8.40;;
12968;SDS011;6549;53.128;8.182;2023-02-20T10:52:50;20.10;;;8.70;;
12968;SDS011;6549;53.128;8.182;2023-02-20T10:59:46;21.35;;;8.93;;
12968;SDS011;6549;53.128;8.182;2023-02-20T11:02:56;17.08;;;8.38;;
12968;SDS011;6549;53.128;8.182;2023-02-20T11:06:03;20.35;;;8.95;;
12968;SDS011;6549;53.128;8.182;2023-02-20T11:09:06;17.20;;;8.00;;
12968;SDS011;6549;53.128;8.182;2023-02-20T11:15:27;17.85;;;8.30;;
12968;SDS011;6549;53.128;8.182;2023-02-20T11:18:30;14.10;;;7.95;;
12968;SDS011;6549;53.128;8.182;2023-02-20T11:21:42;19.25;;;8.05;;
12968;SDS011;6549;53.128;8.182;2023-02-20T11:24:46;17.33;;;8.05;;
12968;SDS011;6549;53.128;8.182;2023-02-20T11:27:47;15.50;;;7.13;;
12968;SDS011;6549;53.128;8.182;2023-02-20T11:31:00;13.80;;;7.57;;
12968;SDS011;6549;53.128;8.182;2023-02-20T11:34:04;17.48;;;8.27;;
12968;SDS011;6549;53.128;8.182;2023-02-20T11:37:04;12.38;;;7.30;;
12968;SDS011;6549;53.128;8.182;2023-02-20T11:43:21;17.52;;;7.68;;
12968;SDS011;6549;53.128;8.182;2023-02-20T11:46:25;14.07;;;7.50;;
12968;SDS011;6549;53.128;8.182;2023-02-20T11:49:26;13.07;;;6.55;;
12968;SDS011;6549;53.128;8.182;2023-02-20T11:52:27;13.82;;;7.47;;
12968;SDS011;6549;53.128;8.182;2023-02-20T11:55:28;11.68;;;6.72;;
12968;SDS011;6549;53.128;8.182;2023-02-20T11:58:28;13.88;;;6.75;;
12968;SDS011;6549;53.128;8.182;2023-02-20T12:04:36;15.20;;;7.20;;
12968;SDS011;6549;53.128;8.182;2023-02-20T12:07:38;13.45;;;6.68;;
12968;SDS011;6549;53.128;8.182;2023-02-20T12:10:42;14.38;;;6.82;;
12968;SDS011;6549;53.128;8.182;2023-02-20T12:13:46;15.15;;;6.70;;
12968;SDS011;6549;53.128;8.182;2023-02-20T12:26:21;17.17;;;7.07;;
12968;SDS011;6549;53.128;8.182;2023-02-20T12:29:51;13.70;;;6.55;;
12968;SDS011;6549;53.128;8.182;2023-02-20T12:40:55;13.73;;;7.15;;
12968;SDS011;6549;53.128;8.182;2023-02-20T12:47:27;15.80;;;6.72;;
12968;SDS011;6549;53.128;8.182;2023-02-20T12:50:39;12.68;;;6.28;;
12968;SDS011;6549;53.128;8.182;2023-02-20T12:54:02;11.50;;;6.68;;
12968;SDS011;6549;53.128;8.182;2023-02-20T12:57:17;12.77;;;6.57;;
12968;SDS011;6549;53.128;8.182;2023-02-20T13:00:33;13.32;;;6.50;;
12968;SDS011;6549;53.128;8.182;2023-02-20T13:07:02;15.15;;;6.75;;
12968;SDS011;6549;53.128;8.182;2023-02-20T13:10:14;13.18;;;6.78;;
12968;SDS011;6549;53.128;8.182;2023-02-20T13:13:17;13.13;;;6.38;;
12968;SDS011;6549;53.128;8.182;2023-02-20T13:16:21;14.35;;;6.90;;
12968;SDS011;6549;53.128;8.182;2023-02-20T13:19:43;14.48;;;6.32;;
12968;SDS011;6549;53.128;8.182;2023-02-20T13:23:04;14.35;;;6.72;;
12968;SDS011;6549;53.128;8.182;2023-02-20T13:29:34;14.75;;;7.10;;
12968;SDS011;6549;53.128;8.182;2023-02-20T13:32:36;14.45;;;7.10;;
12968;SDS011;6549;53.128;8.182;2023-02-20T13:38:40;12.95;;;6.88;;
12968;SDS011;6549;53.128;8.182;2023-02-20T13:44:53;14.90;;;6.72;;
12968;SDS011;6549;53.128;8.182;2023-02-20T13:48:01;15.18;;;7.13;;
12968;SDS011;6549;53.128;8.182;2023-02-20T13:51:29;11.40;;;6.97;;
12968;SDS011;6549;53.128;8.182;2023-02-20T13:54:31;14.48;;;6.50;;
12968;SDS011;6549;53.128;8.182;2023-02-20T13:57:33;10.85;;;6.70;;
12968;SDS011;6549;53.128;8.182;2023-02-20T14:00:52;12.80;;;6.32;;
12968;SDS011;6549;53.128;8.182;2023-02-20T14:04:04;14.57;;;6.70;;
12968;SDS011;6549;53.128;8.182;2023-02-20T14:07:05;18.25;;;6.60;;
12968;SDS011;6549;53.128;8.182;2023-02-20T14:10:07;17.75;;;6.50;;
12968;SDS011;6549;53.128;8.182;2023-02-20T14:13:19;13.63;;;6.40;;
12968;SDS011;6549;53.128;8.182;2023-02-20T14:16:23;14.38;;;6.40;;
12968;SDS011;6549;53.128;8.182;2023-02-20T14:19:29;14.90;;;6.13;;
12968;SDS011;6549;53.128;8.182;2023-02-20T14:22:31;13.27;;;6.30;;
12968;SDS011;6549;53.128;8.182;2023-02-20T14:25:33;13.00;;;6.60;;
12968;SDS011;6549;53.128;8.182;2023-02-20T14:28:33;18.77;;;6.97;;
12968;SDS011;6549;53.128;8.182;2023-02-20T14:31:35;18.27;;;6.43;;
12968;SDS011;6549;53.128;8.182;2023-02-20T14:34:47;14.73;;;6.43;;
12968;SDS011;6549;53.128;8.182;2023-02-20T14:41:23;12.57;;;5.97;;
12968;SDS011;6549;53.128;8.182;2023-02-20T14:44:23;12.40;;;5.55;;
12968;SDS011;6549;53.128;8.182;2023-02-20T14:47:24;12.75;;;5.60;;
12968;SDS011;6549;53.128;8.182;2023-02-20T14:50:29;11.18;;;5.50;;
12968;SDS011;6549;53.128;8.182;2023-02-20T14:53:33;16.95;;;5.90;;
12968;SDS011;6549;53.128;8.182;2023-02-20T14:56:33;17.58;;;5.68;;
12968;SDS011;6549;53.128;8.182;2023-02-20T14:59:34;13.20;;;5.32;;
12968;SDS011;6549;53.128;8.182;2023-02-20T15:02:40;11.15;;;5.32;;
12968;SDS011;6549;53.128;8.182;2023-02-20T15:05:41;15.38;;;5.88;;
12968;SDS011;6549;53.128;8.182;2023-02-20T15:08:43;11.27;;;5.73;;
12968;SDS011;6549;53.128;8.182;2023-02-20T15:11:48;12.35;;;6.07;;
12968;SDS011;6549;53.128;8.182;2023-02-20T15:15:01;11.88;;;6.18;;
12968;SDS011;6549;53.128;8.182;2023-02-20T15:18:04;10.80;;;5.30;;
12968;SDS011;6549;53.128;8.182;2023-02-20T15:21:08;13.50;;;5.53;;
12968;SDS011;6549;53.128;8.182;2023-02-20T15:24:26;11.13;;;5.45;;
12968;SDS011;6549;53.128;8.182;2023-02-20T15:27:32;12.63;;;5.35;;
12968;SDS011;6549;53.128;8.182;2023-02-20T15:30:32;14.85;;;6.40;;
12968;SDS011;6549;53.128;8.182;2023-02-20T15:33:34;13.85;;;5.85;;
12968;SDS011;6549;53.128;8.182;2023-02-20T15:36:36;11.98;;;5.18;;
12968;SDS011;6549;53.128;8.182;2023-02-20T15:39:39;15.73;;;5.82;;
12968;SDS011;6549;53.128;8.182;2023-02-20T15:42:40;10.70;;;5.50;;
12968;SDS011;6549;53.128;8.182;2023-02-20T15:45:40;17.75;;;6.18;;
12968;SDS011;6549;53.128;8.182;2023-02-20T15:48:41;10.93;;;6.05;;
12968;SDS011;6549;53.128;8.182;2023-02-20T15:51:41;10.98;;;5.43;;
12968;SDS011;6549;53.128;8.182;2023-02-20T15:54:44;8.85;;;5.50;;
12968;SDS011;6549;53.128;8.182;2023-02-20T15:57:51;11.05;;;5.47;;
12968;SDS011;6549;53.128;8.182;2023-02-20T16:00:55;13.05;;;5.88;;
12968;SDS011;6549;53.128;8.182;2023-02-20T16:03:56;13.20;;;5.80;;
12968;SDS011;6549;53.128;8.182;2023-02-20T16:06:56;11.77;;;5.70;;
12968;SDS011;6549;53.128;8.182;2023-02-20T16:09:57;11.13;;;5.35;;
12968;SDS011;6549;53.128;8.182;2023-02-20T16:12:57;14.85;;;6.05;;
12968;SDS011;6549;53.128;8.182;2023-02-20T16:16:02;12.48;;;5.53;;
12968;SDS011;6549;53.128;8.182;2023-02-20T16:19:16;13.38;;;5.78;;
12968;SDS011;6549;53.128;8.182;2023-02-20T16:22:18;13.00;;;5.45;;
12968;SDS011;6549;53.128;8.182;2023-02-20T16:25:19;13.38;;;5.70;;
12968;SDS011;6549;53.128;8.182;2023-02-20T16:28:21;14.02;;;6.18;;
12968;SDS011;6549;53.128;8.182;2023-02-20T16:31:21;13.02;;;6.25;;
12968;SDS011;6549;53.128;8.182;2023-02-20T16:34:53;14.10;;;6.03;;
12968;SDS011;6549;53.128;8.182;2023-02-20T16:37:54;14.05;;;5.93;;
12968;SDS011;6549;53.128;8.182;2023-02-20T16:40:55;12.05;;;5.68;;
12968;SDS011;6549;53.128;8.182;2023-02-20T16:43:55;14.52;;;6.30;;
12968;SDS011;6549;53.128;8.182;2023-02-20T16:46:55;12.80;;;6.05;;
12968;SDS011;6549;53.128;8.182;2023-02-20T16:49:56;10.73;;;6.07;;
12968;SDS011;6549;53.128;8.182;2023-02-20T16:53:00;11.75;;;5.75;;
12968;SDS011;6549;53.128;8.182;2023-02-20T16:56:02;13.30;;;6.23;;
12968;SDS011;6549;53.128;8.182;2023-02-20T16:59:02;12.13;;;6.25;;
12968;SDS011;6549;53.128;8.182;2023-02-20T17:02:03;12.00;;;6.50;;
12968;SDS011;6549;53.128;8.182;2023-02-20T17:05:04;11.35;;;6.18;;
12968;SDS011;6549;53.128;8.182;2023-02-20T17:08:04;15.68;;;6.13;;
12968;SDS011;6549;53.128;8.182;2023-02-20T17:11:05;14.48;;;7.00;;
12968;SDS011;6549;53.128;8.182;2023-02-20T17:14:06;16.20;;;7.38;;
12968;SDS011;6549;53.128;8.182;2023-02-20T17:17:06;17.00;;;7.22;;
12968;SDS011;6549;53.128;8.182;2023-02-20T17:20:09;16.17;;;7.85;;
12968;SDS011;6549;53.128;8.182;2023-02-20T17:23:11;17.25;;;7.75;;
12968;SDS011;6549;53.128;8.182;2023-02-20T17:26:11;17.42;;;8.23;;
12968;SDS011;6549;53.128;8.182;2023-02-20T17:29:12;15.25;;;8.60;;
12968;SDS011;6549;53.128;8.182;2023-02-20T17:32:12;17.08;;;7.50;;
12968;SDS011;6549;53.128;8.182;2023-02-20T17:35:14;16.90;;;8.27;;
12968;SDS011;6549;53.128;8.182;2023-02-20T17:38:15;16.13;;;8.18;;
12968;SDS011;6549;53.128;8.182;2023-02-20T17:41:16;14.25;;;7.88;;
12968;SDS011;6549;53.128;8.182;2023-02-20T17:44:19;14.73;;;8.43;;
12968;SDS011;6549;53.128;8.182;2023-02-20T17:47:22;18.63;;;8.73;;
12968;SDS011;6549;53.128;8.182;2023-02-20T17:50:22;17.98;;;8.20;;
12968;SDS011;6549;53.128;8.182;2023-02-20T17:53:23;15.55;;;8.10;;
12968;SDS011;6549;53.128;8.182;2023-02-20T17:56:23;18.70;;;8.20;;
12968;SDS011;6549;53.128;8.182;2023-02-20T17:59:23;15.93;;;8.65;;
12968;SDS011;6549;53.128;8.182;2023-02-20T18:02:24;15.70;;;8.20;;
12968;SDS011;6549;53.128;8.182;2023-02-20T18:05:24;17.17;;;9.25;;
12968;SDS011;6549;53.128;8.182;2023-02-20T18:08:24;17.55;;;8.35;;
12968;SDS011;6549;53.128;8.182;2023-02-20T18:11:25;14.80;;;8.95;;
12968;SDS011;6549;53.128;8.182;2023-02-20T18:14:27;18.23;;;9.85;;
12968;SDS011;6549;53.128;8.182;2023-02-20T18:17:28;16.77;;;9.27;;
12968;SDS011;6549;53.128;8.182;2023-02-20T18:20:29;20.65;;;10.40;;
12968;SDS011;6549;53.128;8.182;2023-02-20T18:23:29;18.48;;;10.50;;
12968;SDS011;6549;53.128;8.182;2023-02-20T18:26:29;19.00;;;9.95;;
12968;SDS011;6549;53.128;8.182;2023-02-20T18:29:30;16.85;;;9.88;;
12968;SDS011;6549;53.128;8.182;2023-02-20T18:32:30;21.90;;;10.35;;
12968;SDS011;6549;53.128;8.182;2023-02-20T18:35:31;16.70;;;10.93;;
12968;SDS011;6549;53.128;8.182;2023-02-20T18:38:31;21.58;;;10.85;;
12968;SDS011;6549;53.128;8.182;2023-02-20T18:41:32;21.25;;;11.10;;
12968;SDS011;6549;53.128;8.182;2023-02-20T18:44:39;20.55;;;10.93;;
12968;SDS011;6549;53.128;8.182;2023-02-20T18:47:39;19.30;;;10.55;;
12968;SDS011;6549;53.128;8.182;2023-02-20T18:50:40;20.88;;;10.65;;
12968;SDS011;6549;53.128;8.182;2023-02-20T18:53:40;19.23;;;11.55;;
12968;SDS011;6549;53.128;8.182;2023-02-20T18:56:43;21.27;;;12.48;;
12968;SDS011;6549;53.128;8.182;2023-02-20T18:59:44;21.25;;;12.57;;
12968;SDS011;6549;53.128;8.182;2023-02-20T19:02:45;21.10;;;13.00;;
12968;SDS011;6549;53.128;8.182;2023-02-20T19:05:45;21.02;;;12.95;;
12968;SDS011;6549;53.128;8.182;2023-02-20T19:08:47;23.37;;;13.40;;
12968;SDS011;6549;53.128;8.182;2023-02-20T19:11:48;20.20;;;13.18;;
12968;SDS011;6549;53.128;8.182;2023-02-20T19:14:49;23.17;;;13.40;;
12968;SDS011;6549;53.128;8.182;2023-02-20T19:17:50;23.30;;;14.00;;
12968;SDS011;6549;53.128;8.182;2023-02-20T19:20:51;24.90;;;13.98;;
12968;SDS011;6549;53.128;8.182;2023-02-20T19:23:51;21.05;;;13.05;;
12968;SDS011;6549;53.128;8.182;2023-02-20T19:26:52;24.55;;;13.65;;
12968;SDS011;6549;53.128;8.182;2023-02-20T19:29:52;23.02;;;14.10;;
12968;SDS011;6549;53.128;8.182;2023-02-20T19:32:52;19.95;;;13.20;;
12968;SDS011;6549;53.128;8.182;2023-02-20T19:35:55;23.83;;;13.20;;
12968;SDS011;6549;53.128;8.182;2023-02-20T19:38:56;21.85;;;13.80;;
12968;SDS011;6549;53.128;8.182;2023-02-20T19:41:56;20.83;;;13.52;;
12968;SDS011;6549;53.128;8.182;2023-02-20T19:44:56;23.65;;;13.93;;
12968;SDS011;6549;53.128;8.182;2023-02-20T19:47:57;21.92;;;13.85;;
12968;SDS011;6549;53.128;8.182;2023-02-20T19:50:57;21.13;;;13.45;;
12968;SDS011;6549;53.128;8.182;2023-02-20T19:53:57;22.40;;;13.57;;